Time;durP1;ratioP1;P1;durP2;ratioP2;P2;SDS_P1;SDS_P2;PMS_P1;PMS_P2;Temp;Humidity;BMP_temperature;BMP_pressure;BME280_temperature;BME280_humidity;BME280_pressure;Samples;Min_cycle;Max_cycle;Signal;HPM_P1;HPM_P2
2023/05/23 00:05:51;;;;;;;5.78;2.35;;;;;;;;;;20916752;28;20040;-61
2023/05/23 00:15:52;;;;;;;4.03;2.45;;;;;;;;;;20916422;28;20055;-61
2023/05/23 00:25:54;;;;;;;3.42;2.35;;;;;;;;;;20913864;28;20056;-61
2023/05/23 00:35:55;;;;;;;4.50;2.03;;;;;;;;;;20912354;28;20048;-61
2023/05/23 00:45:57;;;;;;;5.40;1.95;;;;;;;;;;20911569;28;20064;-60
2023/05/23 00:55:58;;;;;;;5.38;1.70;;;;;;;;;;20911052;28;20505;-59
2023/05/23 01:05:59;;;;;;;6.63;1.92;;;;;;;;;;20909408;28;20084;-60
2023/05/23 01:16:03;;;;;;;3.60;1.92;;;;;;;;;;20908805;28;20431;-60
2023/05/23 01:26:07;;;;;;;4.00;1.75;;;;;;;;;;20870799;28;1140904;-61
2023/05/23 01:36:08;;;;;;;3.30;2.10;;;;;;;;;;20912093;28;20076;-61
2023/05/23 01:46:10;;;;;;;5.40;2.65;;;;;;;;;;20911729;28;20426;-61
2023/05/23 01:56:11;;;;;;;3.80;2.90;;;;;;;;;;20911311;28;20479;-60
2023/05/23 02:06:12;;;;;;;3.70;2.42;;;;;;;;;;20910767;28;20049;-61
2023/05/23 02:16:13;;;;;;;4.78;2.83;;;;;;;;;;20909708;28;20048;-60
2023/05/23 02:26:15;;;;;;;3.85;2.53;;;;;;;;;;20916199;28;20056;-60
2023/05/23 02:36:16;;;;;;;4.75;2.90;;;;;;;;;;20924446;28;20517;-60
2023/05/23 02:46:17;;;;;;;3.00;2.38;;;;;;;;;;20923758;28;20041;-60
2023/05/23 02:56:19;;;;;;;3.78;2.40;;;;;;;;;;20923071;28;20040;-60
2023/05/23 03:06:21;;;;;;;3.85;2.80;;;;;;;;;;20921951;28;20044;-61
2023/05/23 03:16:23;;;;;;;3.65;2.85;;;;;;;;;;20921585;28;20098;-60
2023/05/23 03:26:24;;;;;;;3.45;2.45;;;;;;;;;;20920393;28;20063;-61
2023/05/23 03:36:27;;;;;;;4.72;3.00;;;;;;;;;;20918444;28;20449;-60
2023/05/23 03:46:28;;;;;;;5.00;2.88;;;;;;;;;;20918742;28;20051;-60
2023/05/23 03:56:29;;;;;;;6.18;3.00;;;;;;;;;;20917888;28;20049;-60
2023/05/23 04:06:30;;;;;;;2.90;2.53;;;;;;;;;;20917187;28;20071;-61
2023/05/23 04:16:31;;;;;;;5.72;3.40;;;;;;;;;;20915206;28;20044;-60
2023/05/23 04:26:35;;;;;;;5.63;2.70;;;;;;;;;;20915642;28;20140;-61
2023/05/23 04:36:36;;;;;;;4.68;2.83;;;;;;;;;;20916246;28;20513;-61
2023/05/23 04:46:40;;;;;;;5.00;3.03;;;;;;;;;;20915497;28;20128;-60
2023/05/23 04:56:41;;;;;;;4.95;3.33;;;;;;;;;;20913676;28;20049;-60
2023/05/23 05:06:43;;;;;;;5.18;3.30;;;;;;;;;;20914300;28;20561;-60
2023/05/23 05:16:45;;;;;;;3.67;3.00;;;;;;;;;;20912549;28;20047;-60
2023/05/23 05:26:47;;;;;;;4.65;2.67;;;;;;;;;;20912129;28;20115;-60
2023/05/23 05:36:48;;;;;;;4.50;2.70;;;;;;;;;;20912593;28;20102;-61
2023/05/23 05:46:50;;;;;;;3.25;2.63;;;;;;;;;;20911480;28;20063;-60
2023/05/23 05:56:51;;;;;;;3.13;2.83;;;;;;;;;;20912511;28;20048;-60
2023/05/23 06:06:52;;;;;;;3.75;2.92;;;;;;;;;;20927746;28;20576;-60
2023/05/23 06:16:53;;;;;;;3.47;2.67;;;;;;;;;;20926165;28;20044;-61
2023/05/23 06:26:55;;;;;;;3.75;2.92;;;;;;;;;;20924632;28;20061;-62
2023/05/23 06:36:56;;;;;;;5.47;2.60;;;;;;;;;;20923706;28;20045;-62
2023/05/23 06:46:57;;;;;;;5.22;3.03;;;;;;;;;;20924616;28;20045;-60
2023/05/23 06:56:58;;;;;;;3.90;3.00;;;;;;;;;;20921970;28;20084;-62
2023/05/23 07:06:59;;;;;;;7.88;3.00;;;;;;;;;;20921237;28;20470;-62
2023/05/23 07:17:01;;;;;;;5.40;3.33;;;;;;;;;;20920763;28;20045;-62
2023/05/23 07:27:02;;;;;;;4.43;2.92;;;;;;;;;;20920951;28;20094;-63
2023/05/23 07:37:03;;;;;;;5.88;3.83;;;;;;;;;;20920989;28;20080;-62
2023/05/23 07:47:04;;;;;;;6.18;3.05;;;;;;;;;;20920150;28;20095;-62
2023/05/23 07:57:06;;;;;;;4.63;2.88;;;;;;;;;;20919232;28;20106;-62
2023/05/23 08:07:08;;;;;;;5.25;2.78;;;;;;;;;;20918370;28;20483;-62
2023/05/23 08:17:12;;;;;;;4.45;3.05;;;;;;;;;;20916989;28;20057;-63
2023/05/23 08:27:13;;;;;;;3.72;2.90;;;;;;;;;;20915898;28;20068;-63
2023/05/23 08:37:14;;;;;;;3.95;2.55;;;;;;;;;;20914846;28;20045;-62
2023/05/23 08:47:16;;;;;;;3.00;2.70;;;;;;;;;;20917470;28;20037;-61
2023/05/23 08:57:17;;;;;;;2.65;2.00;;;;;;;;;;20996466;28;20044;-60
2023/05/23 09:07:19;;;;;;;3.67;1.80;;;;;;;;;;20994257;28;20037;-61
2023/05/23 09:17:21;;;;;;;11.43;2.17;;;;;;;;;;20993892;28;20044;-59
2023/05/23 09:27:22;;;;;;;5.70;1.90;;;;;;;;;;20993273;28;20067;-68
2023/05/23 09:37:31;;;;;;;3.28;2.13;;;;;;;;;;21005161;28;20114;-68
2023/05/23 09:47:32;;;;;;;5.43;2.90;;;;;;;;;;21010069;28;20106;-68
2023/05/23 09:57:40;;;;;;;3.63;2.53;;;;;;;;;;21008521;28;20037;-66
2023/05/23 10:07:42;;;;;;;4.17;3.00;;;;;;;;;;21007925;28;20048;-70
2023/05/23 10:17:43;;;;;;;5.20;3.25;;;;;;;;;;21009012;28;20569;-65
2023/05/23 10:27:45;;;;;;;4.10;2.85;;;;;;;;;;21007835;28;20056;-67
2023/05/23 10:37:52;;;;;;;6.53;2.72;;;;;;;;;;21007704;28;20521;-68
2023/05/23 10:47:54;;;;;;;3.47;2.55;;;;;;;;;;21004120;28;20037;-64
2023/05/23 10:58:10;;;;;;;7.78;2.60;;;;;;;;;;21005460;28;20044;-61
2023/05/23 11:08:16;;;;;;;4.05;2.83;;;;;;;;;;21005704;28;20478;-64
2023/05/23 11:18:22;;;;;;;4.78;2.90;;;;;;;;;;21002885;28;20087;-64
2023/05/23 11:28:23;;;;;;;23.40;4.03;;;;;;;;;;21003123;28;20052;-72
2023/05/23 11:38:25;;;;;;;4.80;2.35;;;;;;;;;;21001331;28;20044;-66
2023/05/23 11:48:26;;;;;;;5.05;2.53;;;;;;;;;;21001247;28;20177;-67
2023/05/23 11:58:29;;;;;;;3.00;2.67;;;;;;;;;;20998793;28;20081;-66
2023/05/23 12:08:30;;;;;;;3.95;1.98;;;;;;;;;;20999932;28;20044;-67
2023/05/23 12:18:32;;;;;;;4.53;2.05;;;;;;;;;;20999764;28;20052;-67
2023/05/23 12:28:44;;;;;;;4.72;2.47;;;;;;;;;;20997859;28;20056;-66
2023/05/23 12:38:45;;;;;;;3.30;2.40;;;;;;;;;;20998757;28;20507;-66
2023/05/23 12:48:46;;;;;;;5.15;2.10;;;;;;;;;;20996347;28;20044;-67
2023/05/23 12:58:47;;;;;;;5.00;1.95;;;;;;;;;;20996000;28;20048;-67
2023/05/23 13:08:49;;;;;;;5.15;2.40;;;;;;;;;;20996469;28;20056;-66
2023/05/23 13:18:51;;;;;;;4.60;2.20;;;;;;;;;;20996982;28;20056;-67
2023/05/23 13:28:52;;;;;;;3.13;2.08;;;;;;;;;;20995364;28;20060;-67
2023/05/23 13:38:53;;;;;;;4.28;1.60;;;;;;;;;;20994907;28;20051;-66
2023/05/23 13:48:55;;;;;;;2.88;2.17;;;;;;;;;;20994643;28;20036;-66
2023/05/23 13:58:56;;;;;;;4.05;2.20;;;;;;;;;;20994768;28;20494;-67
2023/05/23 14:08:57;;;;;;;3.67;1.60;;;;;;;;;;20993937;28;20048;-67
2023/05/23 14:18:58;;;;;;;3.22;1.70;;;;;;;;;;20995195;28;20037;-66
2023/05/23 14:29:00;;;;;;;3.22;1.63;;;;;;;;;;21007211;28;20060;-67
2023/05/23 14:39:02;;;;;;;8.82;2.65;;;;;;;;;;21007637;28;20048;-67
2023/05/23 14:49:03;;;;;;;8.60;2.75;;;;;;;;;;21005460;28;20041;-67
2023/05/23 14:59:05;;;;;;;11.07;3.00;;;;;;;;;;21006646;28;20036;-67
2023/05/23 15:09:07;;;;;;;9.88;3.40;;;;;;;;;;21005258;28;20507;-67
2023/05/23 15:19:09;;;;;;;15.57;4.10;;;;;;;;;;21004133;28;20045;-67
2023/05/23 15:29:11;;;;;;;6.68;3.00;;;;;;;;;;21001617;28;20053;-64
2023/05/23 15:39:12;;;;;;;8.68;3.25;;;;;;;;;;21003568;28;20048;-71
2023/05/23 15:49:13;;;;;;;10.25;3.65;;;;;;;;;;21002305;28;20044;-71
2023/05/23 15:59:14;;;;;;;6.80;4.03;;;;;;;;;;21001598;28;20055;-59
2023/05/23 16:09:16;;;;;;;9.38;4.30;;;;;;;;;;20999968;28;20513;-61
2023/05/23 16:19:17;;;;;;;11.48;4.90;;;;;;;;;;20998635;28;20140;-61
2023/05/23 16:29:18;;;;;;;7.85;5.10;;;;;;;;;;21001581;28;20064;-64
2023/05/23 16:39:19;;;;;;;11.93;5.97;;;;;;;;;;20999428;28;20052;-58
2023/05/23 16:49:20;;;;;;;11.52;5.30;;;;;;;;;;20997951;28;20051;-63
2023/05/23 16:59:22;;;;;;;5.57;3.60;;;;;;;;;;20998175;28;20053;-68
2023/05/23 17:09:23;;;;;;;8.45;4.47;;;;;;;;;;20995873;28;20083;-65
2023/05/23 17:19:24;;;;;;;5.43;3.58;;;;;;;;;;20996915;28;20532;-68
2023/05/23 17:29:25;;;;;;;5.38;4.22;;;;;;;;;;20994594;28;20112;-68
2023/05/23 17:39:27;;;;;;;6.35;4.45;;;;;;;;;;20995999;28;20049;-68
2023/05/23 17:49:28;;;;;;;7.25;4.85;;;;;;;;;;20995633;28;20040;-68
2023/05/23 17:59:31;;;;;;;7.25;4.78;;;;;;;;;;21005664;28;20074;-69
2023/05/23 18:09:32;;;;;;;8.57;5.10;;;;;;;;;;21009371;28;20048;-68
2023/05/23 18:19:34;;;;;;;10.10;6.03;;;;;;;;;;21009921;28;20371;-68
2023/05/23 18:29:35;;;;;;;7.15;4.53;;;;;;;;;;21007703;28;20057;-68
2023/05/23 18:39:36;;;;;;;10.32;5.68;;;;;;;;;;21007989;28;20040;-68
2023/05/23 18:49:37;;;;;;;10.85;5.57;;;;;;;;;;21006895;28;20040;-68
2023/05/23 18:59:38;;;;;;;8.75;5.00;;;;;;;;;;21006376;28;20051;-68
2023/05/23 19:09:40;;;;;;;9.07;5.28;;;;;;;;;;21003795;28;20052;-69
2023/05/23 19:19:41;;;;;;;11.15;5.82;;;;;;;;;;21004211;28;20052;-69
2023/05/23 19:29:43;;;;;;;13.90;5.90;;;;;;;;;;21001631;28;20053;-69
2023/05/23 19:39:44;;;;;;;8.35;5.30;;;;;;;;;;21001173;28;20040;-69
2023/05/23 19:49:45;;;;;;;8.57;5.53;;;;;;;;;;21000186;28;20040;-69
2023/05/23 19:59:46;;;;;;;11.15;6.22;;;;;;;;;;20999788;28;20144;-68
2023/05/23 20:09:48;;;;;;;11.82;5.82;;;;;;;;;;20998285;28;20105;-68
2023/05/23 20:19:49;;;;;;;10.05;5.45;;;;;;;;;;20997833;28;20044;-68
2023/05/23 20:29:50;;;;;;;9.45;5.40;;;;;;;;;;20996554;28;20060;-69
2023/05/23 20:39:51;;;;;;;8.18;5.03;;;;;;;;;;20997207;28;20041;-68
2023/05/23 20:49:52;;;;;;;6.88;4.03;;;;;;;;;;20995643;28;20040;-68
2023/05/23 20:59:53;;;;;;;5.10;3.15;;;;;;;;;;20997021;28;20409;-68
2023/05/23 21:09:55;;;;;;;5.45;3.60;;;;;;;;;;20994365;28;20091;-69
2023/05/23 21:19:56;;;;;;;6.20;4.00;;;;;;;;;;20994173;28;20128;-68
2023/05/23 21:29:57;;;;;;;5.03;2.47;;;;;;;;;;20999680;28;20056;-67
2023/05/23 21:39:58;;;;;;;6.07;2.80;;;;;;;;;;21010733;28;20135;-68
2023/05/23 21:49:59;;;;;;;5.60;3.08;;;;;;;;;;21010143;28;20048;-68
2023/05/23 22:00:00;;;;;;;3.13;2.40;;;;;;;;;;21010684;28;20036;-69
2023/05/23 22:10:01;;;;;;;4.47;2.42;;;;;;;;;;21009197;28;20044;-67
2023/05/23 22:20:04;;;;;;;4.78;2.60;;;;;;;;;;21008219;28;20478;-68
2023/05/23 22:30:05;;;;;;;3.65;2.60;;;;;;;;;;21007912;28;20067;-68
2023/05/23 22:40:08;;;;;;;3.42;2.42;;;;;;;;;;21005663;28;20520;-68
2023/05/23 22:50:10;;;;;;;3.33;2.10;;;;;;;;;;21007293;28;20551;-68
2023/05/23 23:00:12;;;;;;;3.92;2.25;;;;;;;;;;21006478;28;20075;-68
2023/05/23 23:10:13;;;;;;;3.30;1.95;;;;;;;;;;21006037;28;20053;-68
2023/05/23 23:20:16;;;;;;;4.18;2.10;;;;;;;;;;21005005;28;20504;-67
2023/05/23 23:30:17;;;;;;;3.85;1.90;;;;;;;;;;21002677;28;20052;-66
2023/05/23 23:40:18;;;;;;;3.08;2.17;;;;;;;;;;21002252;28;20063;-67
2023/05/23 23:50:19;;;;;;;3.40;2.22;;;;;;;;;;21001361;28;20148;-67
